sensor_id;sensor_type;location;lat;lon;timestamp;P1;durP1;ratioP1;P2;durP2;ratioP2
65377;SDS011;51982;51.042;13.806;2023-01-25T00:01:57;23.70;;;9.63;;
65377;SDS011;51982;51.042;13.806;2023-01-25T00:04:22;23.65;;;10.68;;
65377;SDS011;51982;51.042;13.806;2023-01-25T00:06:48;24.67;;;10.25;;
65377;SDS011;51982;51.042;13.806;2023-01-25T00:09:14;25.45;;;11.75;;
65377;SDS011;51982;51.042;13.806;2023-01-25T00:11:40;24.23;;;9.48;;
65377;SDS011;51982;51.042;13.806;2023-01-25T00:14:05;24.70;;;11.35;;
65377;SDS011;51982;51.042;13.806;2023-01-25T00:16:31;22.50;;;10.38;;
65377;SDS011;51982;51.042;13.806;2023-01-25T00:18:57;26.58;;;10.77;;
65377;SDS011;51982;51.042;13.806;2023-01-25T00:21:23;24.20;;;9.48;;
65377;SDS011;51982;51.042;13.806;2023-01-25T00:23:49;21.77;;;9.40;;
65377;SDS011;51982;51.042;13.806;2023-01-25T00:26:15;20.50;;;8.82;;
65377;SDS011;51982;51.042;13.806;2023-01-25T00:28:41;23.88;;;9.75;;
65377;SDS011;51982;51.042;13.806;2023-01-25T00:31:08;19.73;;;9.40;;
65377;SDS011;51982;51.042;13.806;2023-01-25T00:33:51;21.25;;;9.25;;
65377;SDS011;51982;51.042;13.806;2023-01-25T00:39:05;23.67;;;9.77;;
65377;SDS011;51982;51.042;13.806;2023-01-25T00:41:33;18.38;;;8.50;;
65377;SDS011;51982;51.042;13.806;2023-01-25T00:43:58;18.48;;;8.43;;
65377;SDS011;51982;51.042;13.806;2023-01-25T00:46:23;20.35;;;8.48;;
65377;SDS011;51982;51.042;13.806;2023-01-25T00:48:51;18.30;;;8.02;;
65377;SDS011;51982;51.042;13.806;2023-01-25T00:51:18;19.52;;;8.10;;
65377;SDS011;51982;51.042;13.806;2023-01-25T00:53:43;19.10;;;8.13;;
65377;SDS011;51982;51.042;13.806;2023-01-25T00:56:09;19.92;;;7.82;;
65377;SDS011;51982;51.042;13.806;2023-01-25T00:58:34;16.83;;;7.93;;
65377;SDS011;51982;51.042;13.806;2023-01-25T01:00:59;20.70;;;8.47;;
65377;SDS011;51982;51.042;13.806;2023-01-25T01:03:24;19.52;;;7.78;;
65377;SDS011;51982;51.042;13.806;2023-01-25T01:06:09;17.42;;;7.07;;
65377;SDS011;51982;51.042;13.806;2023-01-25T01:08:39;14.57;;;6.38;;
65377;SDS011;51982;51.042;13.806;2023-01-25T01:11:06;11.45;;;5.45;;
65377;SDS011;51982;51.042;13.806;2023-01-25T01:13:34;16.35;;;7.60;;
65377;SDS011;51982;51.042;13.806;2023-01-25T01:16:00;19.50;;;7.75;;
65377;SDS011;51982;51.042;13.806;2023-01-25T01:18:33;15.57;;;6.45;;
65377;SDS011;51982;51.042;13.806;2023-01-25T01:21:00;11.13;;;5.78;;
65377;SDS011;51982;51.042;13.806;2023-01-25T01:23:26;17.25;;;7.10;;
65377;SDS011;51982;51.042;13.806;2023-01-25T01:25:52;20.13;;;7.38;;
65377;SDS011;51982;51.042;13.806;2023-01-25T01:28:17;13.27;;;5.93;;
65377;SDS011;51982;51.042;13.806;2023-01-25T01:30:43;20.92;;;7.63;;
65377;SDS011;51982;51.042;13.806;2023-01-25T01:33:08;17.27;;;7.15;;
65377;SDS011;51982;51.042;13.806;2023-01-25T01:35:36;19.50;;;7.18;;
65377;SDS011;51982;51.042;13.806;2023-01-25T01:38:01;14.40;;;6.95;;
65377;SDS011;51982;51.042;13.806;2023-01-25T01:40:27;15.70;;;7.50;;
65377;SDS011;51982;51.042;13.806;2023-01-25T01:42:59;15.85;;;7.40;;
65377;SDS011;51982;51.042;13.806;2023-01-25T01:48:11;14.40;;;6.03;;
65377;SDS011;51982;51.042;13.806;2023-01-25T01:50:45;17.52;;;7.78;;
65377;SDS011;51982;51.042;13.806;2023-01-25T01:53:14;13.57;;;5.97;;
65377;SDS011;51982;51.042;13.806;2023-01-25T01:55:40;17.73;;;7.32;;
65377;SDS011;51982;51.042;13.806;2023-01-25T01:58:05;15.43;;;6.95;;
65377;SDS011;51982;51.042;13.806;2023-01-25T02:00:31;14.88;;;7.00;;
65377;SDS011;51982;51.042;13.806;2023-01-25T02:03:00;14.23;;;6.75;;
65377;SDS011;51982;51.042;13.806;2023-01-25T02:08:08;16.58;;;7.43;;
65377;SDS011;51982;51.042;13.806;2023-01-25T02:10:37;15.02;;;6.72;;
65377;SDS011;51982;51.042;13.806;2023-01-25T02:13:03;13.93;;;5.68;;
65377;SDS011;51982;51.042;13.806;2023-01-25T02:15:31;14.23;;;6.32;;
65377;SDS011;51982;51.042;13.806;2023-01-25T02:18:02;15.27;;;7.30;;
65377;SDS011;51982;51.042;13.806;2023-01-25T02:20:41;20.58;;;7.40;;
65377;SDS011;51982;51.042;13.806;2023-01-25T02:23:17;16.60;;;7.57;;
65377;SDS011;51982;51.042;13.806;2023-01-25T02:26:11;19.65;;;7.57;;
65377;SDS011;51982;51.042;13.806;2023-01-25T02:28:39;12.15;;;6.00;;
65377;SDS011;51982;51.042;13.806;2023-01-25T02:31:10;16.23;;;6.85;;
65377;SDS011;51982;51.042;13.806;2023-01-25T02:33:35;17.45;;;7.07;;
65377;SDS011;51982;51.042;13.806;2023-01-25T02:38:29;15.63;;;7.63;;
65377;SDS011;51982;51.042;13.806;2023-01-25T02:41:01;14.02;;;7.07;;
65377;SDS011;51982;51.042;13.806;2023-01-25T02:43:32;15.45;;;7.15;;
65377;SDS011;51982;51.042;13.806;2023-01-25T02:45:59;15.38;;;7.45;;
65377;SDS011;51982;51.042;13.806;2023-01-25T02:48:34;15.23;;;7.22;;
65377;SDS011;51982;51.042;13.806;2023-01-25T02:50:59;15.82;;;7.28;;
65377;SDS011;51982;51.042;13.806;2023-01-25T02:53:25;17.67;;;8.15;;
65377;SDS011;51982;51.042;13.806;2023-01-25T02:55:51;19.48;;;8.10;;
65377;SDS011;51982;51.042;13.806;2023-01-25T02:58:16;18.42;;;7.38;;
65377;SDS011;51982;51.042;13.806;2023-01-25T03:00:42;17.10;;;8.27;;
65377;SDS011;51982;51.042;13.806;2023-01-25T03:03:07;18.42;;;7.45;;
65377;SDS011;51982;51.042;13.806;2023-01-25T03:05:32;13.68;;;6.93;;
65377;SDS011;51982;51.042;13.806;2023-01-25T03:07:57;13.82;;;6.80;;
65377;SDS011;51982;51.042;13.806;2023-01-25T03:10:22;16.83;;;7.32;;
65377;SDS011;51982;51.042;13.806;2023-01-25T03:12:48;14.63;;;6.87;;
65377;SDS011;51982;51.042;13.806;2023-01-25T03:15:13;17.33;;;7.65;;
65377;SDS011;51982;51.042;13.806;2023-01-25T03:17:38;15.68;;;7.93;;
65377;SDS011;51982;51.042;13.806;2023-01-25T03:20:03;16.85;;;7.30;;
65377;SDS011;51982;51.042;13.806;2023-01-25T03:22:30;19.17;;;8.10;;
65377;SDS011;51982;51.042;13.806;2023-01-25T03:24:55;15.50;;;7.60;;
65377;SDS011;51982;51.042;13.806;2023-01-25T03:27:21;16.27;;;8.15;;
65377;SDS011;51982;51.042;13.806;2023-01-25T03:29:46;13.80;;;6.63;;
65377;SDS011;51982;51.042;13.806;2023-01-25T03:32:14;17.30;;;7.88;;
65377;SDS011;51982;51.042;13.806;2023-01-25T03:34:39;16.55;;;7.25;;
65377;SDS011;51982;51.042;13.806;2023-01-25T03:37:04;14.98;;;7.70;;
65377;SDS011;51982;51.042;13.806;2023-01-25T03:39:30;18.17;;;7.05;;
65377;SDS011;51982;51.042;13.806;2023-01-25T03:41:55;17.52;;;6.95;;
65377;SDS011;51982;51.042;13.806;2023-01-25T03:44:20;15.65;;;7.40;;
65377;SDS011;51982;51.042;13.806;2023-01-25T03:46:45;14.95;;;7.22;;
65377;SDS011;51982;51.042;13.806;2023-01-25T03:49:11;14.02;;;6.85;;
65377;SDS011;51982;51.042;13.806;2023-01-25T03:51:36;14.93;;;7.13;;
65377;SDS011;51982;51.042;13.806;2023-01-25T03:54:02;17.55;;;7.45;;
65377;SDS011;51982;51.042;13.806;2023-01-25T03:56:27;16.40;;;6.95;;
65377;SDS011;51982;51.042;13.806;2023-01-25T03:58:52;14.13;;;6.90;;
65377;SDS011;51982;51.042;13.806;2023-01-25T04:01:18;11.45;;;5.72;;
65377;SDS011;51982;51.042;13.806;2023-01-25T04:03:43;13.27;;;5.57;;
65377;SDS011;51982;51.042;13.806;2023-01-25T04:06:08;14.85;;;5.88;;
65377;SDS011;51982;51.042;13.806;2023-01-25T04:08:34;13.13;;;6.03;;
65377;SDS011;51982;51.042;13.806;2023-01-25T04:11:00;12.73;;;5.65;;
65377;SDS011;51982;51.042;13.806;2023-01-25T04:13:27;13.70;;;6.03;;
65377;SDS011;51982;51.042;13.806;2023-01-25T04:15:53;14.15;;;6.75;;
65377;SDS011;51982;51.042;13.806;2023-01-25T04:18:18;17.95;;;6.20;;
65377;SDS011;51982;51.042;13.806;2023-01-25T04:20:44;11.60;;;6.25;;
65377;SDS011;51982;51.042;13.806;2023-01-25T04:23:09;16.90;;;7.03;;
65377;SDS011;51982;51.042;13.806;2023-01-25T04:25:35;12.70;;;5.90;;
65377;SDS011;51982;51.042;13.806;2023-01-25T04:28:01;11.88;;;6.30;;
65377;SDS011;51982;51.042;13.806;2023-01-25T04:30:26;12.23;;;5.72;;
65377;SDS011;51982;51.042;13.806;2023-01-25T04:32:51;16.40;;;6.97;;
65377;SDS011;51982;51.042;13.806;2023-01-25T04:35:16;14.32;;;7.25;;
65377;SDS011;51982;51.042;13.806;2023-01-25T04:37:42;12.13;;;6.05;;
65377;SDS011;51982;51.042;13.806;2023-01-25T04:40:07;16.75;;;7.55;;
65377;SDS011;51982;51.042;13.806;2023-01-25T04:42:33;16.17;;;7.20;;
65377;SDS011;51982;51.042;13.806;2023-01-25T04:44:59;15.82;;;6.85;;
65377;SDS011;51982;51.042;13.806;2023-01-25T04:47:24;12.77;;;6.63;;
65377;SDS011;51982;51.042;13.806;2023-01-25T04:49:49;13.35;;;6.57;;
65377;SDS011;51982;51.042;13.806;2023-01-25T04:52:14;14.18;;;7.45;;
65377;SDS011;51982;51.042;13.806;2023-01-25T04:54:39;15.93;;;7.35;;
65377;SDS011;51982;51.042;13.806;2023-01-25T04:57:05;14.18;;;7.13;;
65377;SDS011;51982;51.042;13.806;2023-01-25T04:59:30;14.88;;;6.93;;
65377;SDS011;51982;51.042;13.806;2023-01-25T05:01:55;12.07;;;6.50;;
65377;SDS011;51982;51.042;13.806;2023-01-25T05:04:21;11.60;;;6.05;;
65377;SDS011;51982;51.042;13.806;2023-01-25T05:06:46;12.68;;;5.97;;
65377;SDS011;51982;51.042;13.806;2023-01-25T05:09:11;12.88;;;6.30;;
65377;SDS011;51982;51.042;13.806;2023-01-25T05:11:36;12.07;;;5.80;;
65377;SDS011;51982;51.042;13.806;2023-01-25T05:14:02;14.30;;;6.43;;
65377;SDS011;51982;51.042;13.806;2023-01-25T05:16:27;14.13;;;5.47;;
65377;SDS011;51982;51.042;13.806;2023-01-25T05:18:55;13.57;;;5.40;;
65377;SDS011;51982;51.042;13.806;2023-01-25T05:21:20;10.30;;;4.68;;
65377;SDS011;51982;51.042;13.806;2023-01-25T05:26:30;11.63;;;4.88;;
65377;SDS011;51982;51.042;13.806;2023-01-25T05:29:14;11.05;;;4.88;;
65377;SDS011;51982;51.042;13.806;2023-01-25T05:31:39;14.32;;;5.90;;
65377;SDS011;51982;51.042;13.806;2023-01-25T05:34:04;14.32;;;6.90;;
65377;SDS011;51982;51.042;13.806;2023-01-25T05:36:29;14.90;;;6.30;;
65377;SDS011;51982;51.042;13.806;2023-01-25T05:38:54;13.32;;;6.30;;
65377;SDS011;51982;51.042;13.806;2023-01-25T05:41:20;13.85;;;6.25;;
65377;SDS011;51982;51.042;13.806;2023-01-25T05:43:48;12.80;;;6.20;;
65377;SDS011;51982;51.042;13.806;2023-01-25T05:46:13;15.93;;;6.25;;
65377;SDS011;51982;51.042;13.806;2023-01-25T05:48:39;10.65;;;5.78;;
65377;SDS011;51982;51.042;13.806;2023-01-25T05:51:04;12.38;;;6.05;;
65377;SDS011;51982;51.042;13.806;2023-01-25T05:53:29;14.13;;;5.80;;
65377;SDS011;51982;51.042;13.806;2023-01-25T05:55:55;13.30;;;5.93;;
65377;SDS011;51982;51.042;13.806;2023-01-25T05:58:20;12.80;;;5.88;;
65377;SDS011;51982;51.042;13.806;2023-01-25T06:00:45;17.00;;;6.95;;
65377;SDS011;51982;51.042;13.806;2023-01-25T06:03:10;15.82;;;6.68;;
65377;SDS011;51982;51.042;13.806;2023-01-25T06:05:35;16.10;;;7.25;;
65377;SDS011;51982;51.042;13.806;2023-01-25T06:08:01;15.77;;;6.28;;
65377;SDS011;51982;51.042;13.806;2023-01-25T06:10:26;12.93;;;6.20;;
65377;SDS011;51982;51.042;13.806;2023-01-25T06:12:56;14.20;;;6.97;;
65377;SDS011;51982;51.042;13.806;2023-01-25T06:15:22;14.25;;;7.07;;
65377;SDS011;51982;51.042;13.806;2023-01-25T06:17:48;15.45;;;6.82;;
65377;SDS011;51982;51.042;13.806;2023-01-25T06:20:13;15.93;;;7.10;;
65377;SDS011;51982;51.042;13.806;2023-01-25T06:22:38;16.05;;;7.32;;
65377;SDS011;51982;51.042;13.806;2023-01-25T06:25:04;15.15;;;7.05;;
65377;SDS011;51982;51.042;13.806;2023-01-25T06:27:29;14.00;;;6.82;;
65377;SDS011;51982;51.042;13.806;2023-01-25T06:29:54;14.82;;;6.60;;
65377;SDS011;51982;51.042;13.806;2023-01-25T06:32:20;16.00;;;7.22;;
65377;SDS011;51982;51.042;13.806;2023-01-25T06:34:45;14.10;;;6.40;;
65377;SDS011;51982;51.042;13.806;2023-01-25T06:37:10;16.80;;;7.25;;
65377;SDS011;51982;51.042;13.806;2023-01-25T06:39:36;12.65;;;6.15;;
65377;SDS011;51982;51.042;13.806;2023-01-25T06:42:01;13.20;;;5.57;;
65377;SDS011;51982;51.042;13.806;2023-01-25T06:44:26;12.40;;;6.15;;
65377;SDS011;51982;51.042;13.806;2023-01-25T06:46:51;14.18;;;5.95;;
65377;SDS011;51982;51.042;13.806;2023-01-25T06:49:17;13.25;;;5.97;;
65377;SDS011;51982;51.042;13.806;2023-01-25T06:51:42;12.20;;;5.75;;
65377;SDS011;51982;51.042;13.806;2023-01-25T06:54:07;13.77;;;6.38;;
65377;SDS011;51982;51.042;13.806;2023-01-25T06:56:32;13.30;;;5.70;;
65377;SDS011;51982;51.042;13.806;2023-01-25T06:58:57;16.52;;;7.38;;
65377;SDS011;51982;51.042;13.806;2023-01-25T07:01:23;14.20;;;5.97;;
65377;SDS011;51982;51.042;13.806;2023-01-25T07:03:54;12.73;;;6.28;;
65377;SDS011;51982;51.042;13.806;2023-01-25T07:06:22;12.40;;;5.97;;
65377;SDS011;51982;51.042;13.806;2023-01-25T07:08:49;13.15;;;6.50;;
65377;SDS011;51982;51.042;13.806;2023-01-25T07:11:14;13.27;;;6.75;;
65377;SDS011;51982;51.042;13.806;2023-01-25T07:13:43;15.52;;;6.80;;
65377;SDS011;51982;51.042;13.806;2023-01-25T07:16:10;11.63;;;5.72;;
65377;SDS011;51982;51.042;13.806;2023-01-25T07:18:37;11.70;;;5.93;;
65377;SDS011;51982;51.042;13.806;2023-01-25T07:21:03;12.45;;;5.90;;
65377;SDS011;51982;51.042;13.806;2023-01-25T07:23:33;10.95;;;5.75;;
65377;SDS011;51982;51.042;13.806;2023-01-25T07:25:58;11.73;;;5.43;;
65377;SDS011;51982;51.042;13.806;2023-01-25T07:28:24;10.85;;;5.53;;
65377;SDS011;51982;51.042;13.806;2023-01-25T07:30:50;11.98;;;5.57;;
65377;SDS011;51982;51.042;13.806;2023-01-25T07:33:15;13.50;;;6.03;;
65377;SDS011;51982;51.042;13.806;2023-01-25T07:35:41;14.65;;;5.93;;
65377;SDS011;51982;51.042;13.806;2023-01-25T07:38:06;13.45;;;5.80;;
65377;SDS011;51982;51.042;13.806;2023-01-25T07:40:31;13.73;;;6.07;;
65377;SDS011;51982;51.042;13.806;2023-01-25T07:42:57;18.33;;;6.30;;
65377;SDS011;51982;51.042;13.806;2023-01-25T07:45:22;12.57;;;6.07;;
65377;SDS011;51982;51.042;13.806;2023-01-25T07:47:54;14.07;;;7.05;;
65377;SDS011;51982;51.042;13.806;2023-01-25T07:50:19;13.43;;;6.95;;
65377;SDS011;51982;51.042;13.806;2023-01-25T07:52:44;12.88;;;5.50;;
65377;SDS011;51982;51.042;13.806;2023-01-25T07:55:10;12.60;;;5.88;;
65377;SDS011;51982;51.042;13.806;2023-01-25T07:57:35;11.70;;;5.47;;
65377;SDS011;51982;51.042;13.806;2023-01-25T08:00:00;13.27;;;6.07;;
65377;SDS011;51982;51.042;13.806;2023-01-25T08:02:26;14.52;;;6.18;;
65377;SDS011;51982;51.042;13.806;2023-01-25T08:04:51;17.20;;;6.40;;
65377;SDS011;51982;51.042;13.806;2023-01-25T08:07:16;21.00;;;6.93;;
65377;SDS011;51982;51.042;13.806;2023-01-25T08:09:41;15.30;;;6.20;;
65377;SDS011;51982;51.042;13.806;2023-01-25T08:12:07;13.65;;;6.70;;
65377;SDS011;51982;51.042;13.806;2023-01-25T08:14:32;13.88;;;6.75;;
65377;SDS011;51982;51.042;13.806;2023-01-25T08:16:57;14.75;;;7.57;;
65377;SDS011;51982;51.042;13.806;2023-01-25T08:19:23;10.63;;;6.32;;
65377;SDS011;51982;51.042;13.806;2023-01-25T08:21:49;10.98;;;6.65;;
65377;SDS011;51982;51.042;13.806;2023-01-25T08:24:15;16.73;;;6.82;;
65377;SDS011;51982;51.042;13.806;2023-01-25T08:26:40;11.23;;;5.93;;
65377;SDS011;51982;51.042;13.806;2023-01-25T08:29:08;14.27;;;6.50;;
65377;SDS011;51982;51.042;13.806;2023-01-25T08:31:34;17.23;;;7.55;;
65377;SDS011;51982;51.042;13.806;2023-01-25T08:34:00;13.68;;;6.93;;
65377;SDS011;51982;51.042;13.806;2023-01-25T08:36:25;12.98;;;6.75;;
65377;SDS011;51982;51.042;13.806;2023-01-25T08:38:55;14.35;;;7.07;;
65377;SDS011;51982;51.042;13.806;2023-01-25T08:41:22;16.27;;;7.68;;
65377;SDS011;51982;51.042;13.806;2023-01-25T08:43:50;16.25;;;6.85;;
65377;SDS011;51982;51.042;13.806;2023-01-25T08:46:17;15.32;;;6.90;;
65377;SDS011;51982;51.042;13.806;2023-01-25T08:48:43;14.93;;;7.20;;
65377;SDS011;51982;51.042;13.806;2023-01-25T08:51:10;13.43;;;6.13;;
65377;SDS011;51982;51.042;13.806;2023-01-25T08:53:39;12.40;;;6.25;;
65377;SDS011;51982;51.042;13.806;2023-01-25T08:56:05;11.50;;;6.25;;
65377;SDS011;51982;51.042;13.806;2023-01-25T08:58:31;12.45;;;6.28;;
65377;SDS011;51982;51.042;13.806;2023-01-25T09:01:00;11.40;;;6.28;;
65377;SDS011;51982;51.042;13.806;2023-01-25T09:03:28;11.43;;;6.07;;
65377;SDS011;51982;51.042;13.806;2023-01-25T09:05:53;10.50;;;6.15;;
65377;SDS011;51982;51.042;13.806;2023-01-25T09:08:18;13.35;;;6.50;;
65377;SDS011;51982;51.042;13.806;2023-01-25T09:10:44;13.05;;;5.97;;
65377;SDS011;51982;51.042;13.806;2023-01-25T09:13:09;11.00;;;5.33;;
65377;SDS011;51982;51.042;13.806;2023-01-25T09:15:34;13.45;;;6.07;;
65377;SDS011;51982;51.042;13.806;2023-01-25T09:17:59;10.90;;;5.97;;
65377;SDS011;51982;51.042;13.806;2023-01-25T09:20:24;13.23;;;6.50;;
65377;SDS011;51982;51.042;13.806;2023-01-25T09:22:50;12.10;;;6.50;;
65377;SDS011;51982;51.042;13.806;2023-01-25T09:25:15;12.32;;;6.95;;
65377;SDS011;51982;51.042;13.806;2023-01-25T09:27:40;12.73;;;6.30;;
65377;SDS011;51982;51.042;13.806;2023-01-25T09:30:08;11.80;;;6.38;;
65377;SDS011;51982;51.042;13.806;2023-01-25T09:32:35;13.20;;;6.03;;
65377;SDS011;51982;51.042;13.806;2023-01-25T09:35:00;11.88;;;5.60;;
65377;SDS011;51982;51.042;13.806;2023-01-25T09:37:25;12.23;;;5.53;;
65377;SDS011;51982;51.042;13.806;2023-01-25T09:39:51;14.55;;;5.97;;
65377;SDS011;51982;51.042;13.806;2023-01-25T09:42:30;11.32;;;5.88;;
65377;SDS011;51982;51.042;13.806;2023-01-25T09:45:16;15.25;;;6.55;;
65377;SDS011;51982;51.042;13.806;2023-01-25T09:48:13;15.70;;;6.50;;
65377;SDS011;51982;51.042;13.806;2023-01-25T09:53:49;12.10;;;6.32;;
65377;SDS011;51982;51.042;13.806;2023-01-25T09:58:47;13.80;;;6.53;;
65377;SDS011;51982;51.042;13.806;2023-01-25T10:01:26;12.93;;;6.72;;
65377;SDS011;51982;51.042;13.806;2023-01-25T10:04:12;14.80;;;6.82;;
65377;SDS011;51982;51.042;13.806;2023-01-25T10:06:42;11.68;;;6.40;;
65377;SDS011;51982;51.042;13.806;2023-01-25T10:09:16;15.02;;;6.43;;
65377;SDS011;51982;51.042;13.806;2023-01-25T10:11:44;13.85;;;6.97;;
65377;SDS011;51982;51.042;13.806;2023-01-25T10:14:11;17.27;;;7.80;;
65377;SDS011;51982;51.042;13.806;2023-01-25T10:19:14;12.95;;;6.95;;
65377;SDS011;51982;51.042;13.806;2023-01-25T10:22:03;14.60;;;7.32;;
65377;SDS011;51982;51.042;13.806;2023-01-25T10:27:58;16.70;;;6.25;;
65377;SDS011;51982;51.042;13.806;2023-01-25T10:30:54;12.60;;;6.18;;
65377;SDS011;51982;51.042;13.806;2023-01-25T10:33:23;14.27;;;6.63;;
65377;SDS011;51982;51.042;13.806;2023-01-25T10:35:51;13.98;;;6.70;;
65377;SDS011;51982;51.042;13.806;2023-01-25T10:38:27;17.60;;;7.13;;
65377;SDS011;51982;51.042;13.806;2023-01-25T10:40:55;13.98;;;7.20;;
65377;SDS011;51982;51.042;13.806;2023-01-25T10:43:29;15.55;;;7.75;;
65377;SDS011;51982;51.042;13.806;2023-01-25T10:45:54;15.55;;;7.43;;
65377;SDS011;51982;51.042;13.806;2023-01-25T10:48:23;16.00;;;7.45;;
65377;SDS011;51982;51.042;13.806;2023-01-25T10:50:54;16.35;;;7.97;;
65377;SDS011;51982;51.042;13.806;2023-01-25T10:53:25;19.60;;;8.45;;
65377;SDS011;51982;51.042;13.806;2023-01-25T10:55:53;15.93;;;7.90;;
65377;SDS011;51982;51.042;13.806;2023-01-25T11:01:30;15.07;;;7.22;;
65377;SDS011;51982;51.042;13.806;2023-01-25T11:04:01;13.77;;;6.68;;
65377;SDS011;51982;51.042;13.806;2023-01-25T11:11:55;14.02;;;7.20;;
65377;SDS011;51982;51.042;13.806;2023-01-25T11:14:22;14.87;;;7.60;;
65377;SDS011;51982;51.042;13.806;2023-01-25T11:16:50;16.73;;;7.78;;
65377;SDS011;51982;51.042;13.806;2023-01-25T11:19:34;15.13;;;7.78;;
65377;SDS011;51982;51.042;13.806;2023-01-25T11:22:05;13.50;;;6.65;;
65377;SDS011;51982;51.042;13.806;2023-01-25T11:24:45;12.13;;;6.45;;
65377;SDS011;51982;51.042;13.806;2023-01-25T11:30:10;14.32;;;6.75;;
65377;SDS011;51982;51.042;13.806;2023-01-25T11:32:39;14.73;;;6.90;;
65377;SDS011;51982;51.042;13.806;2023-01-25T11:35:11;15.55;;;7.30;;
65377;SDS011;51982;51.042;13.806;2023-01-25T11:40:48;12.98;;;6.07;;
65377;SDS011;51982;51.042;13.806;2023-01-25T11:43:46;12.88;;;6.78;;
65377;SDS011;51982;51.042;13.806;2023-01-25T11:46:50;13.13;;;7.03;;
65377;SDS011;51982;51.042;13.806;2023-01-25T11:49:48;14.15;;;7.18;;
65377;SDS011;51982;51.042;13.806;2023-01-25T12:01:03;14.40;;;6.75;;
65377;SDS011;51982;51.042;13.806;2023-01-25T12:07:01;11.30;;;6.35;;
65377;SDS011;51982;51.042;13.806;2023-01-25T12:09:48;12.52;;;6.20;;
65377;SDS011;51982;51.042;13.806;2023-01-25T12:12:39;12.52;;;6.70;;
65377;SDS011;51982;51.042;13.806;2023-01-25T12:17:49;12.85;;;6.47;;
65377;SDS011;51982;51.042;13.806;2023-01-25T12:23:20;10.85;;;5.82;;
65377;SDS011;51982;51.042;13.806;2023-01-25T12:26:03;10.30;;;5.25;;
65377;SDS011;51982;51.042;13.806;2023-01-25T12:28:54;11.18;;;5.60;;
65377;SDS011;51982;51.042;13.806;2023-01-25T12:34:15;13.68;;;7.13;;
65377;SDS011;51982;51.042;13.806;2023-01-25T12:36:48;11.40;;;6.07;;
65377;SDS011;51982;51.042;13.806;2023-01-25T12:39:22;11.52;;;6.55;;
65377;SDS011;51982;51.042;13.806;2023-01-25T12:42:25;10.35;;;5.82;;
65377;SDS011;51982;51.042;13.806;2023-01-25T12:45:02;12.10;;;6.30;;
65377;SDS011;51982;51.042;13.806;2023-01-25T12:47:44;12.52;;;6.07;;
65377;SDS011;51982;51.042;13.806;2023-01-25T12:50:16;12.48;;;6.38;;
65377;SDS011;51982;51.042;13.806;2023-01-25T12:52:52;16.20;;;6.32;;
65377;SDS011;51982;51.042;13.806;2023-01-25T12:55:21;11.73;;;6.95;;
65377;SDS011;51982;51.042;13.806;2023-01-25T13:00:40;9.77;;;5.97;;
65377;SDS011;51982;51.042;13.806;2023-01-25T13:03:16;12.43;;;6.38;;
65377;SDS011;51982;51.042;13.806;2023-01-25T13:05:59;13.82;;;6.35;;
65377;SDS011;51982;51.042;13.806;2023-01-25T13:11:39;12.27;;;5.35;;
65377;SDS011;51982;51.042;13.806;2023-01-25T13:16:54;11.23;;;5.47;;
65377;SDS011;51982;51.042;13.806;2023-01-25T13:22:00;12.75;;;5.93;;
65377;SDS011;51982;51.042;13.806;2023-01-25T13:24:28;15.60;;;7.00;;
65377;SDS011;51982;51.042;13.806;2023-01-25T13:32:14;10.35;;;5.75;;
65377;SDS011;51982;51.042;13.806;2023-01-25T13:34:58;11.93;;;6.00;;
65377;SDS011;51982;51.042;13.806;2023-01-25T13:37:25;10.20;;;5.43;;
65377;SDS011;51982;51.042;13.806;2023-01-25T13:39:57;14.18;;;6.43;;
65377;SDS011;51982;51.042;13.806;2023-01-25T13:42:24;11.30;;;6.03;;
65377;SDS011;51982;51.042;13.806;2023-01-25T13:44:52;10.98;;;5.95;;
65377;SDS011;51982;51.042;13.806;2023-01-25T13:47:27;11.60;;;6.10;;
65377;SDS011;51982;51.042;13.806;2023-01-25T13:50:07;9.95;;;5.97;;
65377;SDS011;51982;51.042;13.806;2023-01-25T13:52:54;11.10;;;5.90;;
65377;SDS011;51982;51.042;13.806;2023-01-25T13:55:24;12.20;;;5.47;;
65377;SDS011;51982;51.042;13.806;2023-01-25T13:57:50;11.48;;;6.32;;
65377;SDS011;51982;51.042;13.806;2023-01-25T14:00:15;12.13;;;5.90;;
65377;SDS011;51982;51.042;13.806;2023-01-25T14:02:43;12.75;;;6.35;;
65377;SDS011;51982;51.042;13.806;2023-01-25T14:05:21;11.30;;;6.32;;
65377;SDS011;51982;51.042;13.806;2023-01-25T14:07:49;16.98;;;6.68;;
65377;SDS011;51982;51.042;13.806;2023-01-25T14:10:20;12.38;;;6.25;;
65377;SDS011;51982;51.042;13.806;2023-01-25T14:12:48;11.18;;;5.97;;
65377;SDS011;51982;51.042;13.806;2023-01-25T14:15:24;13.90;;;7.28;;
65377;SDS011;51982;51.042;13.806;2023-01-25T14:18:16;12.15;;;6.93;;
65377;SDS011;51982;51.042;13.806;2023-01-25T14:20:43;13.23;;;6.35;;
65377;SDS011;51982;51.042;13.806;2023-01-25T14:25:45;13.63;;;7.25;;
65377;SDS011;51982;51.042;13.806;2023-01-25T14:28:18;16.38;;;7.15;;
65377;SDS011;51982;51.042;13.806;2023-01-25T14:30:48;12.52;;;6.85;;
65377;SDS011;51982;51.042;13.806;2023-01-25T14:33:16;11.57;;;6.35;;
65377;SDS011;51982;51.042;13.806;2023-01-25T14:35:44;21.83;;;7.32;;
65377;SDS011;51982;51.042;13.806;2023-01-25T14:38:26;12.68;;;6.68;;
65377;SDS011;51982;51.042;13.806;2023-01-25T14:41:01;15.80;;;7.10;;
65377;SDS011;51982;51.042;13.806;2023-01-25T14:43:37;13.85;;;7.13;;
65377;SDS011;51982;51.042;13.806;2023-01-25T14:46:23;14.27;;;6.72;;
65377;SDS011;51982;51.042;13.806;2023-01-25T14:48:50;15.88;;;7.20;;
65377;SDS011;51982;51.042;13.806;2023-01-25T14:51:25;13.63;;;7.10;;
65377;SDS011;51982;51.042;13.806;2023-01-25T14:54:00;14.10;;;7.95;;
65377;SDS011;51982;51.042;13.806;2023-01-25T14:56:28;13.57;;;7.43;;
65377;SDS011;51982;51.042;13.806;2023-01-25T14:59:00;15.68;;;8.68;;
65377;SDS011;51982;51.042;13.806;2023-01-25T15:01:28;16.20;;;7.65;;
65377;SDS011;51982;51.042;13.806;2023-01-25T15:03:56;12.10;;;6.68;;
65377;SDS011;51982;51.042;13.806;2023-01-25T15:06:22;13.25;;;7.13;;
65377;SDS011;51982;51.042;13.806;2023-01-25T15:08:47;12.90;;;6.75;;
65377;SDS011;51982;51.042;13.806;2023-01-25T15:14:19;13.13;;;6.47;;
65377;SDS011;51982;51.042;13.806;2023-01-25T15:16:46;14.15;;;6.90;;
65377;SDS011;51982;51.042;13.806;2023-01-25T15:19:21;13.57;;;6.82;;
65377;SDS011;51982;51.042;13.806;2023-01-25T15:21:47;14.32;;;7.85;;
65377;SDS011;51982;51.042;13.806;2023-01-25T15:24:12;12.85;;;6.55;;
65377;SDS011;51982;51.042;13.806;2023-01-25T15:26:37;17.83;;;7.75;;
65377;SDS011;51982;51.042;13.806;2023-01-25T15:29:13;11.95;;;7.00;;
65377;SDS011;51982;51.042;13.806;2023-01-25T15:31:39;15.35;;;7.88;;
65377;SDS011;51982;51.042;13.806;2023-01-25T15:34:08;13.85;;;6.75;;
65377;SDS011;51982;51.042;13.806;2023-01-25T15:36:39;14.32;;;7.05;;
65377;SDS011;51982;51.042;13.806;2023-01-25T15:39:05;19.27;;;8.27;;
65377;SDS011;51982;51.042;13.806;2023-01-25T15:41:34;14.23;;;7.32;;
65377;SDS011;51982;51.042;13.806;2023-01-25T15:43:59;17.47;;;8.17;;
65377;SDS011;51982;51.042;13.806;2023-01-25T15:46:26;14.10;;;7.43;;
65377;SDS011;51982;51.042;13.806;2023-01-25T15:48:53;15.77;;;7.43;;
65377;SDS011;51982;51.042;13.806;2023-01-25T15:51:19;16.95;;;7.03;;
65377;SDS011;51982;51.042;13.806;2023-01-25T15:53:44;13.20;;;6.55;;